sensor_id;sensor_type;location;lat;lon;timestamp;P1;durP1;ratioP1;P2;durP2;ratioP2
52650;SDS011;38537;47.226;39.702;2023-09-18T00:02:02;10.07;;;6.38;;
52650;SDS011;38537;47.226;39.702;2023-09-18T00:04:30;9.57;;;6.47;;
52650;SDS011;38537;47.226;39.702;2023-09-18T00:06:57;8.38;;;6.68;;
52650;SDS011;38537;47.226;39.702;2023-09-18T00:09:25;11.98;;;7.05;;
52650;SDS011;38537;47.226;39.702;2023-09-18T00:11:52;9.00;;;6.32;;
52650;SDS011;38537;47.226;39.702;2023-09-18T00:14:20;9.15;;;6.82;;
52650;SDS011;38537;47.226;39.702;2023-09-18T00:16:47;10.10;;;6.55;;
52650;SDS011;38537;47.226;39.702;2023-09-18T00:19:25;9.68;;;6.40;;
52650;SDS011;38537;47.226;39.702;2023-09-18T00:21:52;10.15;;;6.43;;
52650;SDS011;38537;47.226;39.702;2023-09-18T00:24:21;7.40;;;6.38;;
52650;SDS011;38537;47.226;39.702;2023-09-18T00:26:50;9.38;;;6.18;;
52650;SDS011;38537;47.226;39.702;2023-09-18T00:29:20;8.38;;;6.60;;
52650;SDS011;38537;47.226;39.702;2023-09-18T00:31:48;9.20;;;6.22;;
52650;SDS011;38537;47.226;39.702;2023-09-18T00:34:16;9.98;;;6.60;;
52650;SDS011;38537;47.226;39.702;2023-09-18T00:36:45;6.95;;;6.20;;
52650;SDS011;38537;47.226;39.702;2023-09-18T00:39:12;7.05;;;5.97;;
52650;SDS011;38537;47.226;39.702;2023-09-18T00:41:41;8.45;;;6.30;;
52650;SDS011;38537;47.226;39.702;2023-09-18T00:44:09;8.98;;;6.40;;
52650;SDS011;38537;47.226;39.702;2023-09-18T00:46:36;8.27;;;6.47;;
52650;SDS011;38537;47.226;39.702;2023-09-18T00:49:04;7.43;;;6.35;;
52650;SDS011;38537;47.226;39.702;2023-09-18T00:51:33;7.43;;;6.38;;
52650;SDS011;38537;47.226;39.702;2023-09-18T00:54:00;8.02;;;6.53;;
52650;SDS011;38537;47.226;39.702;2023-09-18T00:56:28;8.68;;;6.68;;
52650;SDS011;38537;47.226;39.702;2023-09-18T00:58:55;10.45;;;6.70;;
52650;SDS011;38537;47.226;39.702;2023-09-18T01:01:23;8.40;;;6.70;;
52650;SDS011;38537;47.226;39.702;2023-09-18T01:03:50;9.23;;;6.60;;
52650;SDS011;38537;47.226;39.702;2023-09-18T01:06:20;8.48;;;6.82;;
52650;SDS011;38537;47.226;39.702;2023-09-18T01:08:49;8.02;;;6.75;;
52650;SDS011;38537;47.226;39.702;2023-09-18T01:14:19;8.50;;;6.40;;
52650;SDS011;38537;47.226;39.702;2023-09-18T01:16:59;9.73;;;7.20;;
52650;SDS011;38537;47.226;39.702;2023-09-18T01:19:41;9.00;;;6.75;;
52650;SDS011;38537;47.226;39.702;2023-09-18T01:22:14;8.63;;;6.20;;
52650;SDS011;38537;47.226;39.702;2023-09-18T01:24:43;8.77;;;6.95;;
52650;SDS011;38537;47.226;39.702;2023-09-18T01:27:12;8.07;;;6.57;;
52650;SDS011;38537;47.226;39.702;2023-09-18T01:29:41;8.82;;;6.40;;
52650;SDS011;38537;47.226;39.702;2023-09-18T01:32:09;8.57;;;6.32;;
52650;SDS011;38537;47.226;39.702;2023-09-18T01:34:37;6.88;;;6.03;;
52650;SDS011;38537;47.226;39.702;2023-09-18T01:37:09;9.75;;;6.93;;
52650;SDS011;38537;47.226;39.702;2023-09-18T01:39:39;8.77;;;6.40;;
52650;SDS011;38537;47.226;39.702;2023-09-18T01:42:08;10.05;;;6.82;;
52650;SDS011;38537;47.226;39.702;2023-09-18T01:44:38;8.45;;;6.45;;
52650;SDS011;38537;47.226;39.702;2023-09-18T01:47:06;8.20;;;6.65;;
52650;SDS011;38537;47.226;39.702;2023-09-18T01:49:36;8.93;;;6.60;;
52650;SDS011;38537;47.226;39.702;2023-09-18T01:52:07;8.27;;;6.72;;
52650;SDS011;38537;47.226;39.702;2023-09-18T01:54:36;9.00;;;6.78;;
52650;SDS011;38537;47.226;39.702;2023-09-18T01:57:04;8.23;;;6.22;;
52650;SDS011;38537;47.226;39.702;2023-09-18T01:59:32;7.07;;;6.38;;
52650;SDS011;38537;47.226;39.702;2023-09-18T02:01:59;6.88;;;6.10;;
52650;SDS011;38537;47.226;39.702;2023-09-18T02:04:31;8.75;;;6.60;;
52650;SDS011;38537;47.226;39.702;2023-09-18T02:07:24;9.55;;;6.05;;
52650;SDS011;38537;47.226;39.702;2023-09-18T02:09:52;8.55;;;6.35;;
52650;SDS011;38537;47.226;39.702;2023-09-18T02:12:19;7.95;;;6.38;;
52650;SDS011;38537;47.226;39.702;2023-09-18T02:14:48;8.35;;;6.18;;
52650;SDS011;38537;47.226;39.702;2023-09-18T02:17:15;8.57;;;6.28;;
52650;SDS011;38537;47.226;39.702;2023-09-18T02:19:43;7.43;;;6.55;;
52650;SDS011;38537;47.226;39.702;2023-09-18T02:22:10;10.23;;;6.45;;
52650;SDS011;38537;47.226;39.702;2023-09-18T02:24:38;8.55;;;6.50;;
52650;SDS011;38537;47.226;39.702;2023-09-18T02:27:06;9.57;;;6.65;;
52650;SDS011;38537;47.226;39.702;2023-09-18T02:29:33;8.82;;;6.70;;
52650;SDS011;38537;47.226;39.702;2023-09-18T02:32:00;7.63;;;6.30;;
52650;SDS011;38537;47.226;39.702;2023-09-18T02:34:28;9.55;;;6.40;;
52650;SDS011;38537;47.226;39.702;2023-09-18T02:37:00;8.55;;;6.40;;
52650;SDS011;38537;47.226;39.702;2023-09-18T02:39:27;7.65;;;6.82;;
52650;SDS011;38537;47.226;39.702;2023-09-18T02:41:54;8.25;;;6.35;;
52650;SDS011;38537;47.226;39.702;2023-09-18T02:44:23;8.02;;;6.25;;
52650;SDS011;38537;47.226;39.702;2023-09-18T02:46:50;11.73;;;6.97;;
52650;SDS011;38537;47.226;39.702;2023-09-18T02:49:18;12.45;;;7.65;;
52650;SDS011;38537;47.226;39.702;2023-09-18T02:51:45;11.48;;;7.40;;
52650;SDS011;38537;47.226;39.702;2023-09-18T02:54:13;11.73;;;7.53;;
52650;SDS011;38537;47.226;39.702;2023-09-18T02:56:40;10.88;;;7.43;;
52650;SDS011;38537;47.226;39.702;2023-09-18T02:59:08;10.20;;;7.63;;
52650;SDS011;38537;47.226;39.702;2023-09-18T03:01:36;10.35;;;7.60;;
52650;SDS011;38537;47.226;39.702;2023-09-18T03:04:04;10.68;;;8.05;;
52650;SDS011;38537;47.226;39.702;2023-09-18T03:06:31;10.57;;;7.80;;
52650;SDS011;38537;47.226;39.702;2023-09-18T03:08:59;9.93;;;6.85;;
52650;SDS011;38537;47.226;39.702;2023-09-18T03:11:27;11.25;;;8.20;;
52650;SDS011;38537;47.226;39.702;2023-09-18T03:13:56;9.75;;;7.40;;
52650;SDS011;38537;47.226;39.702;2023-09-18T03:16:23;9.88;;;7.47;;
52650;SDS011;38537;47.226;39.702;2023-09-18T03:18:51;11.23;;;8.02;;
52650;SDS011;38537;47.226;39.702;2023-09-18T03:21:19;12.45;;;8.35;;
52650;SDS011;38537;47.226;39.702;2023-09-18T03:23:46;10.70;;;8.10;;
52650;SDS011;38537;47.226;39.702;2023-09-18T03:26:13;14.05;;;8.50;;
52650;SDS011;38537;47.226;39.702;2023-09-18T03:28:41;11.35;;;8.23;;
52650;SDS011;38537;47.226;39.702;2023-09-18T03:31:09;11.23;;;8.55;;
52650;SDS011;38537;47.226;39.702;2023-09-18T03:33:37;12.70;;;8.38;;
52650;SDS011;38537;47.226;39.702;2023-09-18T03:36:05;12.93;;;8.73;;
52650;SDS011;38537;47.226;39.702;2023-09-18T03:38:34;12.63;;;8.15;;
52650;SDS011;38537;47.226;39.702;2023-09-18T03:41:03;12.90;;;8.00;;
52650;SDS011;38537;47.226;39.702;2023-09-18T03:43:31;10.13;;;7.75;;
52650;SDS011;38537;47.226;39.702;2023-09-18T03:46:05;11.52;;;8.00;;
52650;SDS011;38537;47.226;39.702;2023-09-18T03:48:39;10.25;;;7.72;;
52650;SDS011;38537;47.226;39.702;2023-09-18T03:51:06;12.88;;;7.78;;
52650;SDS011;38537;47.226;39.702;2023-09-18T03:53:38;11.23;;;7.85;;
52650;SDS011;38537;47.226;39.702;2023-09-18T03:56:16;9.55;;;7.60;;
52650;SDS011;38537;47.226;39.702;2023-09-18T03:59:17;11.18;;;7.72;;
52650;SDS011;38537;47.226;39.702;2023-09-18T04:01:45;11.90;;;7.50;;
52650;SDS011;38537;47.226;39.702;2023-09-18T04:04:12;13.40;;;7.88;;
52650;SDS011;38537;47.226;39.702;2023-09-18T04:06:43;11.95;;;8.23;;
52650;SDS011;38537;47.226;39.702;2023-09-18T04:09:12;10.02;;;7.57;;
52650;SDS011;38537;47.226;39.702;2023-09-18T04:11:39;11.85;;;8.07;;
52650;SDS011;38537;47.226;39.702;2023-09-18T04:14:07;9.88;;;7.65;;
52650;SDS011;38537;47.226;39.702;2023-09-18T04:16:34;10.40;;;7.82;;
52650;SDS011;38537;47.226;39.702;2023-09-18T04:19:03;10.70;;;7.97;;
52650;SDS011;38537;47.226;39.702;2023-09-18T04:21:31;9.50;;;7.75;;
52650;SDS011;38537;47.226;39.702;2023-09-18T04:23:58;12.38;;;8.43;;
52650;SDS011;38537;47.226;39.702;2023-09-18T04:26:26;11.48;;;8.23;;
52650;SDS011;38537;47.226;39.702;2023-09-18T04:28:58;15.60;;;9.85;;
52650;SDS011;38537;47.226;39.702;2023-09-18T04:31:28;11.10;;;8.48;;
52650;SDS011;38537;47.226;39.702;2023-09-18T04:33:56;9.88;;;8.07;;
52650;SDS011;38537;47.226;39.702;2023-09-18T04:36:23;13.07;;;7.97;;
52650;SDS011;38537;47.226;39.702;2023-09-18T04:38:53;13.15;;;8.55;;
52650;SDS011;38537;47.226;39.702;2023-09-18T04:41:21;12.07;;;8.57;;
52650;SDS011;38537;47.226;39.702;2023-09-18T04:43:48;16.30;;;9.25;;
52650;SDS011;38537;47.226;39.702;2023-09-18T04:46:16;13.45;;;8.93;;
52650;SDS011;38537;47.226;39.702;2023-09-18T04:48:45;15.32;;;9.32;;
52650;SDS011;38537;47.226;39.702;2023-09-18T04:51:12;15.35;;;9.45;;
52650;SDS011;38537;47.226;39.702;2023-09-18T04:53:39;15.30;;;8.77;;
52650;SDS011;38537;47.226;39.702;2023-09-18T04:56:08;15.73;;;9.05;;
52650;SDS011;38537;47.226;39.702;2023-09-18T04:58:39;12.30;;;8.68;;
52650;SDS011;38537;47.226;39.702;2023-09-18T05:01:07;13.27;;;8.98;;
52650;SDS011;38537;47.226;39.702;2023-09-18T05:03:37;13.00;;;8.20;;
52650;SDS011;38537;47.226;39.702;2023-09-18T05:06:09;12.15;;;8.48;;
52650;SDS011;38537;47.226;39.702;2023-09-18T05:08:37;12.07;;;8.93;;
52650;SDS011;38537;47.226;39.702;2023-09-18T05:11:06;11.15;;;8.65;;
52650;SDS011;38537;47.226;39.702;2023-09-18T05:13:34;14.82;;;9.20;;
52650;SDS011;38537;47.226;39.702;2023-09-18T05:16:02;11.75;;;8.05;;
52650;SDS011;38537;47.226;39.702;2023-09-18T05:18:31;13.45;;;8.68;;
52650;SDS011;38537;47.226;39.702;2023-09-18T05:20:58;17.98;;;9.30;;
52650;SDS011;38537;47.226;39.702;2023-09-18T05:23:27;16.83;;;8.77;;
52650;SDS011;38537;47.226;39.702;2023-09-18T05:25:55;15.30;;;9.27;;
52650;SDS011;38537;47.226;39.702;2023-09-18T05:28:23;11.00;;;8.55;;
52650;SDS011;38537;47.226;39.702;2023-09-18T05:30:51;14.38;;;8.73;;
52650;SDS011;38537;47.226;39.702;2023-09-18T05:33:20;14.20;;;8.77;;
52650;SDS011;38537;47.226;39.702;2023-09-18T05:35:47;16.80;;;9.57;;
52650;SDS011;38537;47.226;39.702;2023-09-18T05:38:23;15.98;;;8.63;;
52650;SDS011;38537;47.226;39.702;2023-09-18T05:40:51;14.13;;;8.05;;
52650;SDS011;38537;47.226;39.702;2023-09-18T05:43:19;15.50;;;8.57;;
52650;SDS011;38537;47.226;39.702;2023-09-18T05:45:50;12.75;;;8.55;;
52650;SDS011;38537;47.226;39.702;2023-09-18T05:48:17;13.13;;;8.60;;
52650;SDS011;38537;47.226;39.702;2023-09-18T05:50:46;16.10;;;7.93;;
52650;SDS011;38537;47.226;39.702;2023-09-18T05:53:16;13.68;;;7.82;;
52650;SDS011;38537;47.226;39.702;2023-09-18T05:55:45;13.23;;;7.97;;
52650;SDS011;38537;47.226;39.702;2023-09-18T05:58:12;15.18;;;8.45;;
52650;SDS011;38537;47.226;39.702;2023-09-18T06:00:40;18.30;;;8.50;;
52650;SDS011;38537;47.226;39.702;2023-09-18T06:03:08;13.77;;;8.13;;
52650;SDS011;38537;47.226;39.702;2023-09-18T06:05:39;11.60;;;7.65;;
52650;SDS011;38537;47.226;39.702;2023-09-18T06:08:07;16.35;;;8.10;;
52650;SDS011;38537;47.226;39.702;2023-09-18T06:10:34;14.77;;;8.05;;
52650;SDS011;38537;47.226;39.702;2023-09-18T06:13:02;15.20;;;8.10;;
52650;SDS011;38537;47.226;39.702;2023-09-18T06:15:32;13.25;;;8.32;;
52650;SDS011;38537;47.226;39.702;2023-09-18T06:17:59;16.92;;;8.65;;
52650;SDS011;38537;47.226;39.702;2023-09-18T06:20:27;13.75;;;7.95;;
52650;SDS011;38537;47.226;39.702;2023-09-18T06:22:54;11.80;;;8.25;;
52650;SDS011;38537;47.226;39.702;2023-09-18T06:25:22;18.92;;;7.60;;
52650;SDS011;38537;47.226;39.702;2023-09-18T06:27:49;15.15;;;7.63;;
52650;SDS011;38537;47.226;39.702;2023-09-18T06:30:17;11.48;;;7.00;;
52650;SDS011;38537;47.226;39.702;2023-09-18T06:32:44;16.48;;;7.38;;
52650;SDS011;38537;47.226;39.702;2023-09-18T06:35:12;15.90;;;8.07;;
52650;SDS011;38537;47.226;39.702;2023-09-18T06:37:40;14.48;;;7.70;;
52650;SDS011;38537;47.226;39.702;2023-09-18T06:40:07;12.10;;;7.18;;
52650;SDS011;38537;47.226;39.702;2023-09-18T06:42:36;9.73;;;7.15;;
52650;SDS011;38537;47.226;39.702;2023-09-18T06:45:03;10.57;;;6.95;;
52650;SDS011;38537;47.226;39.702;2023-09-18T06:47:33;11.32;;;6.38;;
52650;SDS011;38537;47.226;39.702;2023-09-18T06:50:01;9.73;;;6.07;;
52650;SDS011;38537;47.226;39.702;2023-09-18T06:52:31;11.70;;;6.22;;
52650;SDS011;38537;47.226;39.702;2023-09-18T06:54:58;7.95;;;6.03;;
52650;SDS011;38537;47.226;39.702;2023-09-18T06:57:26;9.25;;;6.50;;
52650;SDS011;38537;47.226;39.702;2023-09-18T06:59:54;8.52;;;5.93;;
52650;SDS011;38537;47.226;39.702;2023-09-18T07:02:21;10.18;;;6.30;;
52650;SDS011;38537;47.226;39.702;2023-09-18T07:04:49;12.73;;;6.30;;
52650;SDS011;38537;47.226;39.702;2023-09-18T07:07:19;15.00;;;6.70;;
52650;SDS011;38537;47.226;39.702;2023-09-18T07:09:52;10.60;;;6.13;;
52650;SDS011;38537;47.226;39.702;2023-09-18T07:12:31;10.27;;;6.35;;
52650;SDS011;38537;47.226;39.702;2023-09-18T07:15:02;11.70;;;6.50;;
52650;SDS011;38537;47.226;39.702;2023-09-18T07:17:31;12.52;;;7.25;;
52650;SDS011;38537;47.226;39.702;2023-09-18T07:20:02;11.60;;;6.68;;
52650;SDS011;38537;47.226;39.702;2023-09-18T07:22:44;7.57;;;6.20;;
52650;SDS011;38537;47.226;39.702;2023-09-18T07:25:15;15.98;;;6.97;;
52650;SDS011;38537;47.226;39.702;2023-09-18T07:27:44;9.48;;;6.20;;
52650;SDS011;38537;47.226;39.702;2023-09-18T07:30:12;10.70;;;6.53;;
52650;SDS011;38537;47.226;39.702;2023-09-18T07:32:42;12.20;;;6.45;;
52650;SDS011;38537;47.226;39.702;2023-09-18T07:35:10;7.20;;;5.57;;
52650;SDS011;38537;47.226;39.702;2023-09-18T07:37:38;10.63;;;6.22;;
52650;SDS011;38537;47.226;39.702;2023-09-18T07:40:06;9.82;;;6.68;;
52650;SDS011;38537;47.226;39.702;2023-09-18T07:42:34;10.70;;;6.40;;
52650;SDS011;38537;47.226;39.702;2023-09-18T07:45:01;8.85;;;6.35;;
52650;SDS011;38537;47.226;39.702;2023-09-18T07:47:31;9.90;;;6.55;;
52650;SDS011;38537;47.226;39.702;2023-09-18T07:49:59;13.63;;;6.93;;
52650;SDS011;38537;47.226;39.702;2023-09-18T07:52:31;8.30;;;6.72;;
52650;SDS011;38537;47.226;39.702;2023-09-18T07:54:59;11.75;;;6.95;;
52650;SDS011;38537;47.226;39.702;2023-09-18T07:57:27;12.07;;;6.68;;
52650;SDS011;38537;47.226;39.702;2023-09-18T08:00:01;8.85;;;6.15;;
52650;SDS011;38537;47.226;39.702;2023-09-18T08:02:41;9.50;;;6.53;;
52650;SDS011;38537;47.226;39.702;2023-09-18T08:05:10;7.05;;;6.20;;
52650;SDS011;38537;47.226;39.702;2023-09-18T08:07:37;7.80;;;5.80;;
52650;SDS011;38537;47.226;39.702;2023-09-18T08:10:04;6.43;;;5.22;;
52650;SDS011;38537;47.226;39.702;2023-09-18T08:12:36;9.43;;;5.47;;
52650;SDS011;38537;47.226;39.702;2023-09-18T08:15:04;6.28;;;5.13;;
52650;SDS011;38537;47.226;39.702;2023-09-18T08:17:33;8.23;;;5.18;;
52650;SDS011;38537;47.226;39.702;2023-09-18T08:20:01;6.28;;;5.18;;
52650;SDS011;38537;47.226;39.702;2023-09-18T08:22:29;6.18;;;4.63;;
52650;SDS011;38537;47.226;39.702;2023-09-18T08:24:56;6.55;;;4.43;;
52650;SDS011;38537;47.226;39.702;2023-09-18T08:27:24;5.05;;;4.18;;
52650;SDS011;38537;47.226;39.702;2023-09-18T08:29:52;7.85;;;5.40;;
52650;SDS011;38537;47.226;39.702;2023-09-18T08:32:19;9.65;;;4.70;;
52650;SDS011;38537;47.226;39.702;2023-09-18T08:34:48;6.18;;;4.97;;
52650;SDS011;38537;47.226;39.702;2023-09-18T08:37:15;8.40;;;5.78;;
52650;SDS011;38537;47.226;39.702;2023-09-18T08:39:42;6.32;;;5.00;;
52650;SDS011;38537;47.226;39.702;2023-09-18T08:42:09;5.65;;;4.90;;
52650;SDS011;38537;47.226;39.702;2023-09-18T08:44:38;5.45;;;4.88;;
52650;SDS011;38537;47.226;39.702;2023-09-18T08:47:07;5.22;;;4.72;;
52650;SDS011;38537;47.226;39.702;2023-09-18T08:49:38;5.60;;;4.25;;
52650;SDS011;38537;47.226;39.702;2023-09-18T08:52:09;5.65;;;4.30;;
52650;SDS011;38537;47.226;39.702;2023-09-18T08:54:39;4.45;;;3.58;;
52650;SDS011;38537;47.226;39.702;2023-09-18T08:57:07;4.97;;;3.80;;
52650;SDS011;38537;47.226;39.702;2023-09-18T08:59:35;5.30;;;3.95;;
52650;SDS011;38537;47.226;39.702;2023-09-18T09:02:05;9.90;;;4.82;;
52650;SDS011;38537;47.226;39.702;2023-09-18T09:04:33;8.25;;;5.18;;
52650;SDS011;38537;47.226;39.702;2023-09-18T09:07:00;7.45;;;5.20;;
52650;SDS011;38537;47.226;39.702;2023-09-18T09:09:30;11.20;;;4.72;;
52650;SDS011;38537;47.226;39.702;2023-09-18T09:11:59;6.50;;;4.75;;
52650;SDS011;38537;47.226;39.702;2023-09-18T09:14:27;10.20;;;4.65;;
52650;SDS011;38537;47.226;39.702;2023-09-18T09:16:57;5.68;;;4.50;;
52650;SDS011;38537;47.226;39.702;2023-09-18T09:19:28;8.15;;;4.70;;
52650;SDS011;38537;47.226;39.702;2023-09-18T09:22:19;8.68;;;4.55;;
52650;SDS011;38537;47.226;39.702;2023-09-18T09:24:47;4.70;;;4.13;;
52650;SDS011;38537;47.226;39.702;2023-09-18T09:27:15;7.25;;;4.85;;
52650;SDS011;38537;47.226;39.702;2023-09-18T09:29:57;5.72;;;4.22;;
52650;SDS011;38537;47.226;39.702;2023-09-18T09:32:29;9.02;;;4.28;;
52650;SDS011;38537;47.226;39.702;2023-09-18T09:35:00;5.60;;;4.60;;
52650;SDS011;38537;47.226;39.702;2023-09-18T09:37:30;6.82;;;4.55;;
52650;SDS011;38537;47.226;39.702;2023-09-18T09:40:02;5.25;;;4.43;;
52650;SDS011;38537;47.226;39.702;2023-09-18T09:42:40;9.23;;;4.40;;
52650;SDS011;38537;47.226;39.702;2023-09-18T09:45:12;7.03;;;4.30;;
52650;SDS011;38537;47.226;39.702;2023-09-18T09:47:41;5.43;;;4.15;;
52650;SDS011;38537;47.226;39.702;2023-09-18T09:50:13;4.50;;;4.05;;
52650;SDS011;38537;47.226;39.702;2023-09-18T09:52:43;7.30;;;4.30;;
52650;SDS011;38537;47.226;39.702;2023-09-18T09:55:22;5.53;;;4.30;;
52650;SDS011;38537;47.226;39.702;2023-09-18T09:57:52;10.77;;;4.70;;
52650;SDS011;38537;47.226;39.702;2023-09-18T10:00:25;5.32;;;3.78;;
52650;SDS011;38537;47.226;39.702;2023-09-18T10:02:58;6.32;;;4.28;;
52650;SDS011;38537;47.226;39.702;2023-09-18T10:05:30;5.35;;;4.25;;
52650;SDS011;38537;47.226;39.702;2023-09-18T10:08:02;5.70;;;3.92;;
52650;SDS011;38537;47.226;39.702;2023-09-18T10:10:36;5.18;;;4.45;;
52650;SDS011;38537;47.226;39.702;2023-09-18T10:13:10;5.50;;;4.20;;
52650;SDS011;38537;47.226;39.702;2023-09-18T10:15:42;4.47;;;4.07;;
52650;SDS011;38537;47.226;39.702;2023-09-18T10:18:17;4.40;;;3.83;;
52650;SDS011;38537;47.226;39.702;2023-09-18T10:21:09;5.20;;;3.97;;
52650;SDS011;38537;47.226;39.702;2023-09-18T10:27:02;5.90;;;4.32;;
52650;SDS011;38537;47.226;39.702;2023-09-18T10:29:32;4.68;;;4.15;;
52650;SDS011;38537;47.226;39.702;2023-09-18T10:32:03;5.97;;;4.03;;
52650;SDS011;38537;47.226;39.702;2023-09-18T10:34:32;5.93;;;4.32;;
52650;SDS011;38537;47.226;39.702;2023-09-18T10:37:01;7.93;;;4.60;;
52650;SDS011;38537;47.226;39.702;2023-09-18T10:39:37;8.18;;;4.47;;
52650;SDS011;38537;47.226;39.702;2023-09-18T10:42:06;4.97;;;4.30;;
52650;SDS011;38537;47.226;39.702;2023-09-18T10:44:36;4.50;;;3.75;;
52650;SDS011;38537;47.226;39.702;2023-09-18T10:47:08;5.18;;;3.88;;
52650;SDS011;38537;47.226;39.702;2023-09-18T10:49:38;6.78;;;4.05;;
52650;SDS011;38537;47.226;39.702;2023-09-18T10:52:06;4.53;;;4.07;;
52650;SDS011;38537;47.226;39.702;2023-09-18T10:54:38;6.03;;;4.63;;
52650;SDS011;38537;47.226;39.702;2023-09-18T10:57:07;5.35;;;4.10;;
52650;SDS011;38537;47.226;39.702;2023-09-18T10:59:42;4.90;;;4.40;;
52650;SDS011;38537;47.226;39.702;2023-09-18T11:02:15;6.80;;;4.50;;
52650;SDS011;38537;47.226;39.702;2023-09-18T11:04:45;4.47;;;3.85;;
52650;SDS011;38537;47.226;39.702;2023-09-18T11:07:21;5.93;;;4.25;;
52650;SDS011;38537;47.226;39.702;2023-09-18T11:09:50;5.78;;;3.72;;
52650;SDS011;38537;47.226;39.702;2023-09-18T11:12:17;4.65;;;3.70;;
52650;SDS011;38537;47.226;39.702;2023-09-18T11:14:46;4.82;;;4.28;;
52650;SDS011;38537;47.226;39.702;2023-09-18T11:20:16;3.90;;;3.60;;
52650;SDS011;38537;47.226;39.702;2023-09-18T11:22:46;4.47;;;3.88;;
52650;SDS011;38537;47.226;39.702;2023-09-18T11:28:05;4.60;;;4.03;;
52650;SDS011;38537;47.226;39.702;2023-09-18T11:30:36;6.85;;;4.28;;
52650;SDS011;38537;47.226;39.702;2023-09-18T11:33:05;5.20;;;4.00;;
52650;SDS011;38537;47.226;39.702;2023-09-18T11:35:35;4.40;;;4.00;;
52650;SDS011;38537;47.226;39.702;2023-09-18T11:38:06;5.75;;;3.90;;
52650;SDS011;38537;47.226;39.702;2023-09-18T11:40:36;12.85;;;4.20;;
52650;SDS011;38537;47.226;39.702;2023-09-18T11:43:18;4.32;;;3.92;;
52650;SDS011;38537;47.226;39.702;2023-09-18T11:46:02;4.57;;;3.45;;
52650;SDS011;38537;47.226;39.702;2023-09-18T11:48:33;4.28;;;3.88;;
52650;SDS011;38537;47.226;39.702;2023-09-18T11:51:03;4.97;;;3.53;;
52650;SDS011;38537;47.226;39.702;2023-09-18T11:53:33;5.20;;;4.30;;
52650;SDS011;38537;47.226;39.702;2023-09-18T11:56:04;5.97;;;4.90;;
52650;SDS011;38537;47.226;39.702;2023-09-18T11:58:45;6.03;;;4.10;;
52650;SDS011;38537;47.226;39.702;2023-09-18T12:01:18;4.25;;;3.88;;
52650;SDS011;38537;47.226;39.702;2023-09-18T12:03:45;5.20;;;4.70;;
52650;SDS011;38537;47.226;39.702;2023-09-18T12:06:14;6.18;;;4.47;;
52650;SDS011;38537;47.226;39.702;2023-09-18T12:08:42;4.93;;;4.53;;
52650;SDS011;38537;47.226;39.702;2023-09-18T12:11:11;4.63;;;4.22;;
52650;SDS011;38537;47.226;39.702;2023-09-18T12:13:55;5.65;;;4.50;;
52650;SDS011;38537;47.226;39.702;2023-09-18T12:16:23;5.18;;;4.40;;
52650;SDS011;38537;47.226;39.702;2023-09-18T12:18:50;4.15;;;3.75;;
52650;SDS011;38537;47.226;39.702;2023-09-18T12:21:20;5.38;;;4.20;;
52650;SDS011;38537;47.226;39.702;2023-09-18T12:23:47;4.45;;;4.03;;
52650;SDS011;38537;47.226;39.702;2023-09-18T12:26:15;4.60;;;4.18;;
52650;SDS011;38537;47.226;39.702;2023-09-18T12:28:44;5.10;;;4.20;;
52650;SDS011;38537;47.226;39.702;2023-09-18T12:31:12;5.97;;;4.10;;
52650;SDS011;38537;47.226;39.702;2023-09-18T12:33:41;3.97;;;3.58;;
52650;SDS011;38537;47.226;39.702;2023-09-18T12:36:19;4.45;;;4.05;;
52650;SDS011;38537;47.226;39.702;2023-09-18T12:38:56;5.55;;;4.20;;
52650;SDS011;38537;47.226;39.702;2023-09-18T12:41:24;4.35;;;3.60;;
52650;SDS011;38537;47.226;39.702;2023-09-18T12:46:26;4.82;;;4.22;;
52650;SDS011;38537;47.226;39.702;2023-09-18T12:48:54;4.45;;;4.00;;
52650;SDS011;38537;47.226;39.702;2023-09-18T12:51:31;4.75;;;4.00;;
52650;SDS011;38537;47.226;39.702;2023-09-18T12:53:59;4.90;;;4.43;;
52650;SDS011;38537;47.226;39.702;2023-09-18T12:56:39;5.57;;;4.43;;
52650;SDS011;38537;47.226;39.702;2023-09-18T12:59:08;5.15;;;4.30;;
52650;SDS011;38537;47.226;39.702;2023-09-18T13:01:46;6.60;;;4.18;;
52650;SDS011;38537;47.226;39.702;2023-09-18T13:04:16;4.93;;;4.32;;
52650;SDS011;38537;47.226;39.702;2023-09-18T13:06:43;7.38;;;4.57;;
52650;SDS011;38537;47.226;39.702;2023-09-18T13:09:18;5.53;;;4.32;;
52650;SDS011;38537;47.226;39.702;2023-09-18T13:11:56;6.18;;;4.20;;
52650;SDS011;38537;47.226;39.702;2023-09-18T13:14:24;6.93;;;4.40;;
52650;SDS011;38537;47.226;39.702;2023-09-18T13:16:53;6.13;;;4.18;;
52650;SDS011;38537;47.226;39.702;2023-09-18T13:19:33;5.78;;;4.57;;
52650;SDS011;38537;47.226;39.702;2023-09-18T13:22:01;4.82;;;4.38;;
52650;SDS011;38537;47.226;39.702;2023-09-18T13:24:30;4.90;;;4.28;;
52650;SDS011;38537;47.226;39.702;2023-09-18T13:26:58;4.88;;;4.38;;
52650;SDS011;38537;47.226;39.702;2023-09-18T13:29:27;5.82;;;4.60;;
52650;SDS011;38537;47.226;39.702;2023-09-18T13:31:54;6.88;;;4.75;;
52650;SDS011;38537;47.226;39.702;2023-09-18T13:34:22;5.18;;;4.50;;
52650;SDS011;38537;47.226;39.702;2023-09-18T13:36:50;4.45;;;4.05;;
52650;SDS011;38537;47.226;39.702;2023-09-18T13:39:17;5.70;;;4.90;;
52650;SDS011;38537;47.226;39.702;2023-09-18T13:41:45;4.40;;;3.95;;
52650;SDS011;38537;47.226;39.702;2023-09-18T13:44:13;5.55;;;4.72;;
52650;SDS011;38537;47.226;39.702;2023-09-18T13:46:40;5.30;;;4.57;;
52650;SDS011;38537;47.226;39.702;2023-09-18T13:49:10;5.60;;;4.38;;
52650;SDS011;38537;47.226;39.702;2023-09-18T13:51:38;4.40;;;4.00;;
52650;SDS011;38537;47.226;39.702;2023-09-18T13:54:05;5.07;;;4.10;;
52650;SDS011;38537;47.226;39.702;2023-09-18T13:56:34;4.95;;;4.00;;
52650;SDS011;38537;47.226;39.702;2023-09-18T13:59:01;7.20;;;4.50;;
52650;SDS011;38537;47.226;39.702;2023-09-18T14:01:29;4.43;;;3.95;;
52650;SDS011;38537;47.226;39.702;2023-09-18T14:03:57;5.05;;;4.53;;
52650;SDS011;38537;47.226;39.702;2023-09-18T14:06:24;5.55;;;4.38;;
52650;SDS011;38537;47.226;39.702;2023-09-18T14:08:52;6.05;;;4.97;;
52650;SDS011;38537;47.226;39.702;2023-09-18T14:11:20;5.88;;;4.40;;
52650;SDS011;38537;47.226;39.702;2023-09-18T14:17:31;6.13;;;4.80;;
52650;SDS011;38537;47.226;39.702;2023-09-18T14:20:02;5.20;;;4.70;;
52650;SDS011;38537;47.226;39.702;2023-09-18T14:22:37;5.88;;;5.25;;
52650;SDS011;38537;47.226;39.702;2023-09-18T14:25:04;4.45;;;4.05;;
52650;SDS011;38537;47.226;39.702;2023-09-18T14:27:34;5.05;;;4.50;;
52650;SDS011;38537;47.226;39.702;2023-09-18T14:30:03;4.68;;;4.20;;
52650;SDS011;38537;47.226;39.702;2023-09-18T14:32:35;5.00;;;4.50;;
52650;SDS011;38537;47.226;39.702;2023-09-18T14:35:04;4.72;;;4.10;;
52650;SDS011;38537;47.226;39.702;2023-09-18T14:37:36;5.93;;;4.65;;
52650;SDS011;38537;47.226;39.702;2023-09-18T14:40:04;7.22;;;4.75;;
52650;SDS011;38537;47.226;39.702;2023-09-18T14:42:32;5.57;;;4.97;;
52650;SDS011;38537;47.226;39.702;2023-09-18T14:45:00;5.07;;;4.57;;
52650;SDS011;38537;47.226;39.702;2023-09-18T14:47:31;5.20;;;4.60;;
52650;SDS011;38537;47.226;39.702;2023-09-18T14:49:59;5.82;;;4.95;;
52650;SDS011;38537;47.226;39.702;2023-09-18T14:52:31;5.25;;;4.50;;
52650;SDS011;38537;47.226;39.702;2023-09-18T14:54:59;6.78;;;4.85;;
52650;SDS011;38537;47.226;39.702;2023-09-18T14:57:31;4.65;;;4.15;;
52650;SDS011;38537;47.226;39.702;2023-09-18T14:59:59;4.90;;;4.30;;
52650;SDS011;38537;47.226;39.702;2023-09-18T15:02:26;6.80;;;4.85;;
52650;SDS011;38537;47.226;39.702;2023-09-18T15:04:57;5.43;;;4.93;;